Time;durP1;ratioP1;P1;durP2;ratioP2;P2;SDS_P1;SDS_P2;PMS_P1;PMS_P2;Temp;Humidity;BMP_temperature;BMP_pressure;BME280_temperature;BME280_humidity;BME280_pressure;Samples;Min_cycle;Max_cycle;Signal;HPM_P1;HPM_P2
2021/09/18 00:02:21;;;;;;;3.53;3.22;;;16.00;73.80;;;15.75;59.70;94776.16;5014657;28;20320;-78
2021/09/18 00:04:49;;;;;;;4.43;3.40;;;16.00;73.90;;;15.75;59.49;94770.06;5030842;28;20220;-79
2021/09/18 00:07:16;;;;;;;5.50;3.40;;;16.00;73.90;;;15.73;59.54;94770.28;5031089;28;20212;-79
2021/09/18 00:09:43;;;;;;;4.40;3.40;;;16.00;73.90;;;15.71;59.60;94772.38;5015642;28;20209;-79
2021/09/18 00:12:11;;;;;;;4.03;3.45;;;16.00;73.90;;;15.68;59.55;94764.88;5011379;28;20218;-79
2021/09/18 00:14:39;;;;;;;4.13;3.40;;;16.00;73.80;;;15.67;59.51;94763.25;5011483;28;20303;-79
2021/09/18 00:17:07;;;;;;;4.22;2.97;;;15.90;73.80;;;15.71;59.57;94771.53;5016239;28;20204;-78
2021/09/18 00:19:35;;;;;;;4.47;3.60;;;16.00;73.90;;;15.68;59.30;94759.59;5031008;28;20543;-79
2021/09/18 00:22:03;;;;;;;3.70;3.20;;;15.90;73.90;;;15.67;59.40;94764.09;5015622;28;20213;-79
2021/09/18 00:24:32;;;;;;;3.90;3.03;;;15.90;73.90;;;15.66;59.29;94759.81;5029877;28;20312;-79
2021/09/18 00:26:59;;;;;;;4.22;3.42;;;16.00;74.00;;;15.67;59.24;94768.56;4998389;28;20216;-79
2021/09/18 00:29:26;;;;;;;3.30;3.00;;;15.90;74.00;;;15.66;59.29;94774.88;5014156;28;20192;-79
2021/09/18 00:31:53;;;;;;;3.78;3.15;;;15.90;73.90;;;15.64;59.49;94766.38;5014039;28;20754;-79
2021/09/18 00:34:21;;;;;;;3.60;3.25;;;15.90;73.90;;;15.62;59.71;94769.22;5018275;28;20224;-79
2021/09/18 00:36:48;;;;;;;3.83;3.50;;;15.90;74.00;;;15.60;59.41;94766.03;5014676;28;20219;-79
2021/09/18 00:39:15;;;;;;;4.57;3.30;;;15.90;74.00;;;15.61;59.45;94777.38;5032263;28;20212;-79
2021/09/18 00:41:43;;;;;;;3.58;3.10;;;15.90;74.00;;;15.63;59.31;94767.41;5018170;28;20289;-79
2021/09/18 00:44:19;;;;;;;3.75;3.13;;;15.90;74.10;;;15.61;59.66;94774.75;5034452;28;20720;-79
2021/09/18 00:46:50;;;;;;;3.83;3.40;;;15.90;74.30;;;15.61;59.97;94772.94;5017378;28;20216;-78
2021/09/18 00:49:18;;;;;;;3.72;3.03;;;15.90;74.20;;;15.59;59.41;94768.91;5031802;28;20219;-79
2021/09/18 00:51:46;;;;;;;3.80;3.40;;;15.90;74.20;;;15.59;59.46;94767.06;5034460;28;20242;-79
2021/09/18 00:54:14;;;;;;;4.50;3.42;;;15.90;74.30;;;15.59;59.64;94768.91;5034313;28;20289;-79
2021/09/18 00:56:43;;;;;;;3.13;2.83;;;15.80;74.10;;;15.61;59.62;94770.28;5033395;28;20208;-79
2021/09/18 00:59:11;;;;;;;5.40;3.33;;;15.80;74.30;;;15.60;59.74;94763.38;5017961;28;20203;-79
2021/09/18 01:01:38;;;;;;;3.50;3.20;;;15.80;74.20;;;15.64;59.90;94769.03;5035460;28;20394;-79
2021/09/18 01:04:05;;;;;;;3.70;3.40;;;15.80;74.30;;;15.65;59.61;94775.91;5017907;28;20622;-79
2021/09/18 01:06:33;;;;;;;3.20;2.90;;;15.80;74.20;;;15.66;59.60;94767.75;5016958;28;20318;-78
2021/09/18 01:09:00;;;;;;;3.33;3.03;;;15.80;74.30;;;15.69;59.72;94766.50;5017268;28;20250;-79
2021/09/18 01:11:28;;;;;;;5.78;3.40;;;15.90;74.40;;;15.68;59.51;94763.06;5017914;28;20212;-79
2021/09/18 01:13:56;;;;;;;3.10;2.80;;;15.90;74.40;;;15.68;59.38;94760.41;5013918;28;20224;-79
2021/09/18 01:16:24;;;;;;;3.60;3.17;;;15.90;74.40;;;15.71;59.54;94760.97;4997880;28;20217;-79
2021/09/18 01:18:52;;;;;;;4.85;3.30;;;15.90;74.50;;;15.69;59.50;94758.56;5018369;28;20235;-80
2021/09/18 01:21:20;;;;;;;4.43;3.35;;;15.90;74.40;;;15.69;59.48;94750.63;5018630;28;20383;-79
2021/09/18 01:23:47;;;;;;;3.55;3.25;;;15.90;74.40;;;15.67;59.38;94752.69;4997793;28;20299;-79
2021/09/18 01:26:14;;;;;;;3.80;3.28;;;15.90;74.30;;;15.61;59.40;94743.84;5018605;28;20278;-79
2021/09/18 01:28:41;;;;;;;4.82;3.65;;;15.90;74.30;;;15.57;59.55;94742.66;5017092;28;20192;-79
2021/09/18 01:31:09;;;;;;;3.60;3.25;;;15.90;74.20;;;15.50;59.81;94736.69;5033688;28;20208;-79
2021/09/18 01:33:37;;;;;;;3.30;3.00;;;15.80;74.20;;;15.49;59.55;94743.81;5033825;28;20238;-79
2021/09/18 01:36:05;;;;;;;3.67;3.28;;;15.80;74.20;;;15.45;59.53;94741.84;5015805;28;20658;-78
2021/09/18 01:38:32;;;;;;;3.28;2.97;;;15.80;74.20;;;15.40;59.71;94744.38;5033382;28;20196;-79
2021/09/18 01:40:59;;;;;;;3.88;3.17;;;15.80;74.20;;;15.35;59.79;94734.47;5017243;28;20215;-79
2021/09/18 01:43:29;;;;;;;3.88;3.00;;;15.70;74.20;;;15.33;60.07;94745.28;5033188;28;20228;-79
2021/09/18 01:45:56;;;;;;;3.63;3.33;;;15.60;74.20;;;15.29;59.86;94740.66;5016542;28;20224;-79
2021/09/18 01:48:24;;;;;;;3.25;2.85;;;15.70;74.30;;;15.28;59.97;94742.50;5033594;28;20684;-79
2021/09/18 01:50:52;;;;;;;3.47;2.90;;;15.60;74.30;;;15.28;59.97;94746.97;5032687;28;20216;-79
2021/09/18 01:53:23;;;;;;;3.70;3.22;;;15.60;74.40;;;15.25;60.20;94747.44;5049342;28;20188;-79
2021/09/18 01:55:52;;;;;;;3.40;3.10;;;15.60;74.50;;;15.23;60.48;94744.19;5028571;28;20228;-79
2021/09/18 01:58:20;;;;;;;6.07;3.17;;;15.50;74.40;;;15.21;59.66;94744.44;5013720;28;20669;-79
2021/09/18 02:00:56;;;;;;;3.60;3.30;;;15.50;74.40;;;15.16;59.94;94733.72;5044690;28;20327;-79
2021/09/18 02:03:24;;;;;;;2.75;2.53;;;15.50;74.70;;;15.11;60.02;94741.50;5013188;28;20223;-79
2021/09/18 02:05:52;;;;;;;3.80;3.00;;;15.50;74.40;;;15.10;60.35;94732.78;4997348;28;20225;-78
2021/09/18 02:08:22;;;;;;;3.13;2.83;;;15.40;74.40;;;15.08;60.55;94732.19;5004983;28;20208;-78
2021/09/18 02:10:52;;;;;;;3.58;3.28;;;15.40;74.60;;;15.03;60.35;94732.88;5010764;28;20224;-78
2021/09/18 02:13:20;;;;;;;3.47;3.00;;;15.40;74.60;;;15.03;60.01;94740.00;5016537;28;20199;-78
2021/09/18 02:15:48;;;;;;;3.90;3.50;;;15.40;74.60;;;15.00;60.53;94735.97;5032552;28;20322;-78
2021/09/18 02:18:16;;;;;;;3.80;3.15;;;15.30;74.70;;;14.99;60.80;94736.16;5031518;28;20192;-78
2021/09/18 02:20:43;;;;;;;3.60;3.30;;;15.30;74.70;;;14.95;60.66;94735.03;5014050;28;20220;-79
2021/09/18 02:23:12;;;;;;;3.88;3.05;;;15.30;74.70;;;14.98;60.41;94737.22;5031595;28;20228;-79
2021/09/18 02:25:41;;;;;;;3.45;3.15;;;15.30;74.80;;;14.98;60.56;94734.59;5026363;28;20653;-78
2021/09/18 02:28:08;;;;;;;3.28;2.97;;;15.30;74.80;;;14.95;60.62;94725.28;4998338;28;20624;-79
2021/09/18 02:30:37;;;;;;;4.65;3.10;;;15.20;74.80;;;14.95;60.95;94735.03;5024020;28;20220;-78
2021/09/18 02:33:06;;;;;;;3.55;3.22;;;15.30;75.00;;;14.93;60.71;94731.78;5031233;28;20650;-79
2021/09/18 02:35:34;;;;;;;3.60;3.10;;;15.20;74.80;;;14.91;60.55;94726.72;5026564;28;20762;-79
2021/09/18 02:38:04;;;;;;;2.90;2.70;;;15.30;75.00;;;14.92;60.34;94735.47;5029935;28;20256;-79
2021/09/18 02:40:32;;;;;;;3.92;3.20;;;15.30;75.00;;;14.87;60.81;94729.00;5010808;28;20332;-79
2021/09/18 02:43:00;;;;;;;3.80;3.38;;;15.20;74.80;;;14.85;60.46;94728.44;5027307;28;20236;-79
2021/09/18 02:45:29;;;;;;;3.50;3.20;;;15.30;75.00;;;14.80;60.86;94730.13;5028970;28;20226;-79
2021/09/18 02:47:56;;;;;;;3.67;3.33;;;15.20;74.90;;;14.77;60.69;94731.38;5025481;28;20204;-79
2021/09/18 02:50:25;;;;;;;4.85;2.97;;;15.20;74.80;;;14.73;60.49;94731.03;5011057;28;20213;-79
2021/09/18 02:52:52;;;;;;;4.55;3.08;;;15.20;74.80;;;14.70;60.67;94736.75;5027225;28;20212;-79
2021/09/18 02:55:19;;;;;;;4.38;3.10;;;15.10;74.80;;;14.67;60.64;94729.28;5021357;28;20743;-79
2021/09/18 02:57:47;;;;;;;3.30;3.00;;;15.10;74.80;;;14.64;60.91;94724.41;5035013;28;20275;-79
2021/09/18 03:00:15;;;;;;;3.35;3.05;;;15.00;74.80;;;14.64;60.73;94721.75;5013519;28;20192;-79
2021/09/18 03:02:43;;;;;;;3.63;2.92;;;15.00;74.90;;;14.66;60.68;94734.75;5013807;28;20668;-78
2021/09/18 03:05:14;;;;;;;3.28;2.97;;;15.00;75.00;;;14.65;60.99;94728.69;5013960;28;20289;-78
2021/09/18 03:07:42;;;;;;;3.08;2.78;;;15.00;75.10;;;14.67;60.95;94731.09;5030764;28;20286;-79
2021/09/18 03:10:10;;;;;;;3.15;2.80;;;14.90;75.00;;;14.68;61.02;94728.25;5031831;28;20304;-79
2021/09/18 03:12:38;;;;;;;4.30;3.15;;;15.00;75.20;;;14.71;61.08;94727.00;5010903;28;20230;-78
2021/09/18 03:15:08;;;;;;;5.00;3.78;;;15.00;75.30;;;14.73;61.21;94717.00;4998106;28;20720;-78
2021/09/18 03:17:36;;;;;;;3.92;3.17;;;14.90;75.20;;;14.76;60.95;94728.94;5012983;28;20541;-78
2021/09/18 03:20:06;;;;;;;3.63;3.33;;;15.00;75.30;;;14.79;61.00;94723.25;5013363;28;20274;-78
2021/09/18 03:22:34;;;;;;;3.72;3.40;;;15.00;75.30;;;14.79;61.12;94718.75;5013393;28;20725;-78
2021/09/18 03:25:03;;;;;;;3.75;3.25;;;15.10;75.40;;;14.83;60.33;94729.69;5028747;28;20211;-78
2021/09/18 03:27:30;;;;;;;6.53;3.10;;;15.10;75.40;;;14.85;60.90;94723.16;5031148;28;20196;-78
2021/09/18 03:29:57;;;;;;;3.75;3.38;;;15.00;75.40;;;14.87;61.17;94722.94;5029461;28;20306;-79
2021/09/18 03:32:24;;;;;;;3.42;3.13;;;15.10;75.40;;;14.92;61.04;94717.78;5024715;28;20224;-78
2021/09/18 03:34:51;;;;;;;3.45;3.15;;;15.10;75.50;;;14.95;60.90;94714.72;5025907;28;20463;-78
2021/09/18 03:37:18;;;;;;;3.50;3.20;;;15.10;75.40;;;14.95;60.92;94717.34;5026319;28;20252;-78
2021/09/18 03:39:46;;;;;;;3.50;3.20;;;15.10;75.50;;;15.01;60.74;94723.56;5011768;28;20197;-78
2021/09/18 03:42:13;;;;;;;3.65;3.08;;;15.20;75.60;;;15.03;60.89;94722.31;5029265;28;20290;-78
2021/09/18 03:44:40;;;;;;;3.60;3.20;;;15.20;75.50;;;15.06;60.77;94718.41;5026125;28;20386;-79
2021/09/18 03:47:07;;;;;;;4.85;3.55;;;15.20;75.60;;;15.09;61.12;94725.88;5013437;28;20318;-79
2021/09/18 03:49:34;;;;;;;3.88;3.58;;;15.20;75.60;;;15.09;61.27;94727.72;5031457;28;20203;-79
2021/09/18 03:52:02;;;;;;;4.95;4.00;;;15.30;75.70;;;15.09;61.14;94720.59;5031854;28;20216;-80
2021/09/18 03:54:29;;;;;;;4.82;4.30;;;15.30;75.80;;;15.10;61.18;94719.59;5030626;28;20334;-79
2021/09/18 03:56:56;;;;;;;3.97;3.58;;;15.30;75.70;;;15.13;61.04;94724.41;5020197;28;20786;-78
2021/09/18 03:59:23;;;;;;;3.50;3.20;;;15.40;75.80;;;15.14;61.10;94727.88;5011367;28;20552;-79
2021/09/18 04:01:51;;;;;;;4.72;4.00;;;15.30;75.70;;;15.11;61.21;94718.56;4994978;28;20252;-79
2021/09/18 04:04:18;;;;;;;4.45;4.05;;;15.40;75.80;;;15.04;61.51;94716.00;5043900;28;20236;-79
2021/09/18 04:06:47;;;;;;;4.55;4.07;;;15.30;75.80;;;15.08;61.39;94718.19;5030292;28;20208;-79
2021/09/18 04:09:15;;;;;;;4.78;4.00;;;15.30;75.90;;;15.07;61.78;94719.22;5047655;28;20280;-79
2021/09/18 04:11:42;;;;;;;4.93;4.43;;;15.30;75.90;;;15.05;61.20;94722.09;5014449;28;20253;-79
2021/09/18 04:14:09;;;;;;;4.57;4.07;;;15.40;76.00;;;15.02;61.79;94715.41;5014213;28;20202;-79
2021/09/18 04:16:37;;;;;;;5.13;4.60;;;15.30;76.00;;;15.02;61.83;94720.69;5027205;28;20256;-79
2021/09/18 04:19:04;;;;;;;5.60;4.65;;;15.40;76.20;;;15.02;62.04;94709.31;5027490;28;20211;-79
2021/09/18 04:21:32;;;;;;;5.00;4.32;;;15.40;76.20;;;15.01;61.80;94715.63;5027393;28;20244;-78
2021/09/18 04:24:00;;;;;;;6.10;4.60;;;15.30;76.20;;;14.99;61.94;94718.50;5031654;28;20283;-78
2021/09/18 04:26:27;;;;;;;4.57;4.10;;;15.30;76.20;;;14.98;62.28;94711.59;5013413;28;20247;-79
2021/09/18 04:28:54;;;;;;;4.82;4.10;;;15.30;76.20;;;14.99;61.86;94710.59;5014794;28;20199;-79
2021/09/18 04:31:21;;;;;;;4.93;4.43;;;15.40;76.30;;;14.97;62.26;94712.63;5031052;28;20323;-79
2021/09/18 04:33:49;;;;;;;8.52;4.10;;;15.30;76.30;;;14.96;62.20;94707.59;5030293;28;20661;-79
2021/09/18 04:36:16;;;;;;;4.68;4.18;;;15.30;76.40;;;14.97;61.99;94717.91;5030350;28;20232;-78
2021/09/18 04:38:43;;;;;;;4.20;3.80;;;15.30;76.40;;;14.98;62.58;94713.47;5030278;28;20196;-79
2021/09/18 04:41:10;;;;;;;4.05;3.65;;;15.30;76.40;;;14.96;62.12;94710.22;5013581;28;20251;-78
2021/09/18 04:43:38;;;;;;;3.90;3.55;;;15.30;76.50;;;14.97;61.89;94714.47;5031048;28;20282;-78
2021/09/18 04:46:05;;;;;;;4.10;3.70;;;15.20;76.30;;;14.98;61.88;94714.25;5025987;28;20225;-79
2021/09/18 04:48:33;;;;;;;5.63;3.80;;;15.30;76.50;;;14.99;62.48;94721.16;5010967;28;20284;-79
2021/09/18 04:51:00;;;;;;;3.88;3.58;;;15.30;76.50;;;14.97;61.99;94712.63;5026625;28;20232;-79
2021/09/18 04:53:27;;;;;;;3.90;3.60;;;15.30;76.40;;;15.01;62.16;94726.19;5010773;28;20247;-79
2021/09/18 04:55:54;;;;;;;3.70;3.40;;;15.30;76.50;;;15.03;61.86;94726.78;4994137;28;20294;-78
2021/09/18 04:58:25;;;;;;;3.70;3.40;;;15.30;76.50;;;15.02;61.99;94725.19;5026227;28;20201;-79
2021/09/18 05:00:52;;;;;;;3.78;3.38;;;15.30;76.60;;;15.05;61.77;94730.81;5002073;28;20224;-79
2021/09/18 05:03:20;;;;;;;4.10;3.70;;;15.20;76.50;;;15.06;62.26;94731.59;5010700;28;20292;-79
2021/09/18 05:05:48;;;;;;;4.75;3.88;;;15.30;76.60;;;15.08;61.78;94728.75;5019388;28;20208;-78
2021/09/18 05:08:16;;;;;;;5.20;4.20;;;15.30;76.60;;;15.09;62.38;94733.00;5030554;28;20295;-78
2021/09/18 05:10:43;;;;;;;4.90;3.67;;;15.30;76.60;;;15.09;62.38;94727.72;5016557;28;20302;-79
2021/09/18 05:13:10;;;;;;;4.03;3.63;;;15.30;76.60;;;15.09;62.37;94727.72;5034030;28;20292;-79
2021/09/18 05:15:38;;;;;;;4.50;3.83;;;15.30;76.60;;;15.11;62.57;94730.94;5032210;28;20224;-78
2021/09/18 05:18:05;;;;;;;4.25;3.85;;;15.40;76.70;;;15.12;62.48;94729.91;5034154;28;20200;-79
2021/09/18 05:20:33;;;;;;;5.70;4.30;;;15.40;76.60;;;15.12;62.34;94733.34;4999102;28;20750;-78
2021/09/18 05:23:00;;;;;;;4.20;3.72;;;15.30;76.60;;;15.12;62.47;94732.56;5034060;28;20250;-80
2021/09/18 05:25:27;;;;;;;3.75;3.40;;;15.40;76.70;;;15.17;62.30;94732.69;5033445;28;20230;-78
2021/09/18 05:27:55;;;;;;;4.03;3.55;;;15.40;76.70;;;15.17;62.17;94730.88;5041630;28;20606;-79
2021/09/18 05:30:22;;;;;;;4.13;3.67;;;15.40;76.80;;;15.25;62.44;94742.94;5043354;28;20307;-79
2021/09/18 05:32:49;;;;;;;4.93;3.95;;;15.40;76.80;;;15.23;62.05;94723.06;5017801;28;20657;-78
2021/09/18 05:35:16;;;;;;;3.63;3.33;;;15.40;76.70;;;15.30;61.92;94735.13;5032880;28;20239;-79
2021/09/18 05:37:43;;;;;;;4.10;3.70;;;15.40;76.80;;;15.33;62.28;94734.69;5033746;28;20242;-78
2021/09/18 05:40:11;;;;;;;4.30;3.90;;;15.50;76.80;;;15.39;61.82;94732.97;5033988;28;20557;-79
2021/09/18 05:42:38;;;;;;;3.60;3.30;;;15.50;76.80;;;15.42;62.18;94734.38;5033127;28;20226;-78
2021/09/18 05:45:07;;;;;;;3.75;3.33;;;15.60;76.80;;;15.46;62.11;94735.53;5033150;28;20385;-78
2021/09/18 05:47:35;;;;;;;4.03;3.60;;;15.50;76.80;;;15.48;62.07;94728.97;5033519;28;20630;-78
2021/09/18 05:50:03;;;;;;;4.10;3.60;;;15.60;76.90;;;15.52;61.88;94719.56;5017107;28;20650;-78
2021/09/18 05:52:30;;;;;;;4.30;3.70;;;15.60;76.90;;;15.61;62.01;94727.97;5016907;28;20760;-79
2021/09/18 05:54:57;;;;;;;4.47;3.38;;;15.70;76.80;;;15.63;61.85;94719.81;5033027;28;20204;-80
2021/09/18 05:57:24;;;;;;;5.05;3.33;;;15.70;76.80;;;15.67;61.59;94728.88;5033345;28;20222;-79
2021/09/18 05:59:51;;;;;;;4.43;3.38;;;15.80;76.70;;;15.73;62.03;94733.25;5016687;28;20283;-79
2021/09/18 06:02:18;;;;;;;4.07;3.20;;;15.80;76.70;;;15.77;61.76;94734.44;5016566;28;20361;-79
2021/09/18 06:04:46;;;;;;;3.90;3.50;;;15.80;76.70;;;15.80;61.86;94736.59;5029291;28;20201;-79
2021/09/18 06:07:13;;;;;;;3.17;2.88;;;15.90;76.80;;;15.85;61.48;94741.25;4982759;28;20225;-78
2021/09/18 06:09:40;;;;;;;3.40;3.08;;;15.90;76.80;;;15.90;61.92;94736.06;5016805;28;20872;-80
2021/09/18 06:12:07;;;;;;;5.32;3.50;;;16.00;76.80;;;15.95;61.72;94735.38;5025944;28;20244;-79
2021/09/18 06:14:34;;;;;;;4.05;3.47;;;16.00;76.70;;;16.00;61.68;94733.66;5016080;28;20242;-80
2021/09/18 06:17:02;;;;;;;3.78;3.20;;;16.10;76.70;;;16.04;61.52;94733.19;5029156;28;20232;-80
2021/09/18 06:19:29;;;;;;;3.80;3.50;;;16.10;76.70;;;16.04;61.35;94738.50;5017027;28;20668;-79
2021/09/18 06:21:56;;;;;;;3.38;3.03;;;16.10;76.40;;;16.00;61.52;94735.50;5016136;28;20394;-78
2021/09/18 06:24:23;;;;;;;4.40;3.65;;;16.10;76.20;;;16.00;61.43;94738.97;5032827;28;20218;-79
2021/09/18 06:26:51;;;;;;;3.85;3.45;;;16.20;76.30;;;15.99;61.52;94734.72;5032366;28;20632;-78
2021/09/18 06:29:18;;;;;;;3.92;3.63;;;16.20;76.20;;;16.05;61.31;94737.47;4997692;28;20207;-78
2021/09/18 06:31:46;;;;;;;3.75;3.45;;;16.10;76.40;;;16.14;61.53;94739.53;5012820;28;20268;-79
2021/09/18 06:34:13;;;;;;;5.53;4.10;;;16.20;76.70;;;16.25;61.50;94734.47;4996719;28;20662;-79
2021/09/18 06:36:40;;;;;;;3.95;3.65;;;16.30;76.80;;;16.32;61.29;94741.25;4995990;28;20259;-79
2021/09/18 06:39:07;;;;;;;4.25;3.70;;;16.30;76.70;;;16.42;61.62;94743.31;5028990;28;20224;-79
2021/09/18 06:41:34;;;;;;;5.65;3.67;;;16.40;76.70;;;16.47;60.96;94737.31;4996308;28;20232;-78
2021/09/18 06:44:01;;;;;;;4.30;3.83;;;16.50;76.70;;;16.57;60.95;94747.31;5002116;28;20188;-79
2021/09/18 06:46:29;;;;;;;3.90;3.60;;;16.50;76.60;;;16.62;60.93;94742.94;5020388;28;20629;-78
2021/09/18 06:48:56;;;;;;;4.55;4.10;;;16.60;76.60;;;16.69;61.01;94742.00;5015805;28;20207;-78
2021/09/18 06:51:23;;;;;;;3.90;3.55;;;16.60;76.40;;;16.69;60.95;94742.78;5015933;28;20224;-79
2021/09/18 06:53:50;;;;;;;3.80;3.50;;;16.70;76.30;;;16.70;60.50;94749.69;5031784;28;20200;-79
2021/09/18 06:56:17;;;;;;;4.20;3.70;;;16.70;76.10;;;16.70;60.51;94738.28;5014751;28;20314;-78
2021/09/18 06:58:44;;;;;;;5.45;3.40;;;16.70;76.10;;;16.72;60.48;94744.16;5015589;28;20218;-80
2021/09/18 07:01:12;;;;;;;4.00;3.60;;;16.80;76.00;;;16.70;60.60;94746.22;5031269;28;20761;-79
2021/09/18 07:03:39;;;;;;;3.72;3.40;;;16.80;76.00;;;16.68;60.65;94746.47;5031856;28;20705;-78
2021/09/18 07:06:07;;;;;;;3.65;3.35;;;16.80;75.90;;;16.63;60.81;94736.56;5014875;28;20220;-78
2021/09/18 07:08:34;;;;;;;4.13;3.60;;;16.80;75.90;;;16.62;60.50;94734.16;5032905;28;20200;-80
2021/09/18 07:11:01;;;;;;;4.13;3.72;;;16.80;75.80;;;16.62;60.64;94739.47;5031594;28;20701;-79
2021/09/18 07:13:29;;;;;;;3.78;3.42;;;16.80;75.80;;;16.63;60.84;94738.44;5031765;28;20270;-79
2021/09/18 07:15:57;;;;;;;4.45;3.63;;;16.80;75.90;;;16.63;60.92;94739.22;5036261;28;20250;-79
2021/09/18 07:18:24;;;;;;;3.55;3.25;;;16.80;75.90;;;16.65;60.65;94741.66;5018141;28;20192;-79
2021/09/18 07:20:51;;;;;;;3.60;3.30;;;16.80;75.80;;;16.68;60.65;94743.03;5031717;28;20763;-79
2021/09/18 07:23:19;;;;;;;4.40;3.67;;;16.80;75.90;;;16.71;60.56;94743.38;5015120;28;20196;-79
2021/09/18 07:25:47;;;;;;;4.40;3.60;;;16.80;75.90;;;16.74;60.65;94734.16;5031567;28;20216;-78
2021/09/18 07:28:14;;;;;;;4.20;3.80;;;16.80;75.90;;;16.76;60.96;94730.22;5031346;28;20607;-78
2021/09/18 07:30:41;;;;;;;4.50;3.50;;;16.80;75.90;;;16.79;60.54;94735.03;5031007;28;20232;-80
2021/09/18 07:33:08;;;;;;;4.45;3.75;;;16.90;75.90;;;16.84;60.73;94736.19;5015191;28;20188;-78
2021/09/18 07:35:37;;;;;;;4.65;3.60;;;16.90;75.90;;;16.88;60.32;94734.66;5047960;28;20224;-79
2021/09/18 07:38:05;;;;;;;4.55;3.60;;;16.90;75.80;;;16.93;60.32;94737.44;5031707;28;20194;-78
2021/09/18 07:40:34;;;;;;;4.03;3.63;;;17.00;76.00;;;16.97;60.12;94735.94;5012950;28;20631;-78
2021/09/18 07:43:02;;;;;;;3.40;3.03;;;17.00;75.90;;;17.00;60.58;94735.47;5024842;28;20196;-80
2021/09/18 07:45:29;;;;;;;4.05;3.55;;;17.10;75.90;;;17.00;60.20;94740.75;5031159;28;20269;-79
2021/09/18 07:47:56;;;;;;;7.13;4.18;;;17.10;75.80;;;17.01;60.41;94742.38;5014484;28;20223;-77
2021/09/18 07:50:23;;;;;;;4.90;4.40;;;17.10;75.70;;;17.04;60.28;94749.03;5014483;28;20247;-79
2021/09/18 07:52:50;;;;;;;4.07;3.75;;;17.10;75.60;;;17.06;60.09;94741.66;5031561;28;20290;-78
2021/09/18 07:55:18;;;;;;;5.30;4.07;;;17.10;75.60;;;17.10;60.13;94745.44;5031172;28;20224;-79
2021/09/18 07:58:05;;;;;;;4.60;4.20;;;17.20;75.60;;;17.16;60.31;94736.53;5017481;28;20202;-78
2021/09/18 08:00:32;;;;;;;4.43;4.03;;;17.20;75.70;;;17.24;60.44;94738.81;5027077;28;20209;-79
2021/09/18 08:02:59;;;;;;;6.00;3.78;;;17.30;75.90;;;17.31;60.23;94748.47;5028134;28;20297;-78
2021/09/18 08:05:27;;;;;;;4.40;4.00;;;17.20;75.70;;;17.33;59.90;94738.44;5009491;28;20224;-80
2021/09/18 08:07:59;;;;;;;4.93;4.47;;;17.30;75.60;;;17.32;59.87;94742.94;5027867;28;20201;-79
2021/09/18 08:10:27;;;;;;;4.70;4.00;;;17.40;75.40;;;17.29;59.83;94744.19;5011320;28;20216;-79
2021/09/18 08:12:54;;;;;;;4.65;4.25;;;17.40;75.20;;;17.27;59.86;94750.78;5012989;28;20195;-79
2021/09/18 08:15:23;;;;;;;5.82;5.22;;;17.40;75.10;;;17.25;59.35;94751.03;5027437;28;20651;-80
2021/09/18 08:17:51;;;;;;;5.68;4.95;;;17.50;75.30;;;17.28;60.03;94742.63;5029098;28;20197;-79
2021/09/18 08:20:19;;;;;;;7.28;4.65;;;17.40;75.40;;;17.36;60.19;94748.59;5027501;28;20200;-79
2021/09/18 08:22:48;;;;;;;6.90;4.97;;;17.40;75.70;;;17.54;60.26;94743.06;5026778;28;20709;-80
2021/09/18 08:25:17;;;;;;;5.63;5.10;;;17.40;75.90;;;17.72;60.10;94735.91;5030837;28;20207;-79
2021/09/18 08:27:44;;;;;;;7.05;5.70;;;17.50;76.20;;;17.93;59.73;94734.38;5031024;28;20258;-80
2021/09/18 08:30:13;;;;;;;6.90;5.50;;;17.60;76.40;;;18.16;59.74;94725.47;5032336;28;20227;-80
2021/09/18 08:32:40;;;;;;;7.57;6.80;;;17.70;76.70;;;18.39;59.28;94739.56;5030220;28;20215;-80
2021/09/18 08:35:09;;;;;;;6.03;5.43;;;17.90;76.50;;;18.56;59.00;94729.69;5030096;28;20245;-79
2021/09/18 08:37:37;;;;;;;6.13;5.53;;;18.10;76.40;;;18.76;59.12;94739.00;5030848;28;20243;-80
2021/09/18 08:40:07;;;;;;;5.80;5.15;;;18.20;76.30;;;18.90;59.19;94728.78;5031015;28;20674;-80
2021/09/18 08:42:38;;;;;;;6.70;5.55;;;18.40;76.00;;;19.00;58.57;94736.88;5013969;28;20230;-80
2021/09/18 08:45:08;;;;;;;6.78;5.47;;;18.50;75.70;;;19.01;58.25;94724.41;5032613;28;20626;-79
2021/09/18 08:47:37;;;;;;;7.53;5.35;;;18.70;75.00;;;18.97;57.69;94736.56;5014802;28;20266;-79
2021/09/18 08:50:06;;;;;;;7.20;5.00;;;18.80;74.60;;;18.91;57.89;94741.06;5005428;28;20204;-80
2021/09/18 08:52:33;;;;;;;5.90;4.97;;;18.80;74.40;;;18.83;57.98;94734.25;5018228;28;20224;-80
2021/09/18 08:55:01;;;;;;;6.22;5.45;;;18.80;74.30;;;18.77;57.86;94734.47;5034033;28;20354;-80
2021/09/18 09:52:31;;;;;;;9.38;5.72;;;15.50;77.80;;;14.86;65.25;94767.00;5109690;27;20573;-77
2021/09/18 09:55:09;;;;;;;8.38;6.03;;;15.40;79.30;;;15.40;65.00;94768.16;5088760;28;20229;-78
2021/09/18 09:57:42;;;;;;;12.60;7.75;;;15.50;79.60;;;15.85;64.19;94767.69;5083717;28;20627;-78
2021/09/18 10:00:15;;;;;;;8.27;6.80;;;15.80;78.70;;;16.23;63.27;94771.72;5059244;28;20279;-78
2021/09/18 10:02:43;;;;;;;6.57;5.88;;;16.00;78.90;;;16.57;63.12;94777.22;5051775;28;20240;-78
2021/09/18 10:05:14;;;;;;;6.57;5.57;;;16.30;78.70;;;16.82;62.03;94781.47;5056608;28;20187;-78
2021/09/18 10:07:42;;;;;;;6.32;5.72;;;16.60;77.80;;;17.05;61.97;94780.63;5088466;28;20210;-79
2021/09/18 15:21:45;;;;;;;4.10;3.70;;;16.40;78.40;;;16.06;65.26;94776.13;5070140;28;20565;-79
2021/09/18 15:24:14;;;;;;;5.30;4.88;;;16.40;79.10;;;16.59;64.22;94771.72;5027762;28;20196;-80
2021/09/18 15:26:41;;;;;;;4.70;4.18;;;16.60;79.30;;;17.10;63.13;94774.59;4996731;28;20303;-79
2021/09/18 15:29:08;;;;;;;4.53;4.13;;;16.90;79.30;;;17.52;62.64;94766.34;5028949;28;20216;-80
2021/09/18 15:31:38;;;;;;;4.78;4.38;;;17.20;78.80;;;17.91;61.49;94770.97;5012696;28;20220;-79
2021/09/18 15:34:05;;;;;;;7.03;4.70;;;17.50;78.00;;;18.19;60.98;94772.75;5031389;28;20215;-79
2021/09/18 15:36:33;;;;;;;5.00;4.25;;;17.80;77.70;;;18.43;60.27;94769.91;5047424;28;20226;-79
2021/09/18 16:56:01;;;;;;;4.63;3.97;;;14.40;78.60;;;13.86;67.06;94800.44;5081011;27;20573;-78
2021/09/18 16:58:29;;;;;;;4.38;3.97;;;14.40;80.00;;;14.35;66.57;94800.63;5064522;28;20195;-79
2021/09/18 17:00:57;;;;;;;4.35;4.03;;;14.50;80.20;;;14.83;65.44;94793.03;5016920;28;20219;-78
2021/09/18 17:03:24;;;;;;;5.07;4.68;;;14.80;80.10;;;15.25;64.39;94793.13;5066560;28;20206;-79
2021/09/18 17:05:51;;;;;;;4.60;4.20;;;15.10;80.60;;;15.59;63.94;94793.50;5045417;28;20241;-78
2021/09/18 17:08:18;;;;;;;4.85;4.35;;;15.40;79.40;;;15.85;63.43;94788.84;5048050;28;20199;-78
2021/09/18 17:10:46;;;;;;;5.20;4.70;;;15.60;79.00;;;16.02;63.23;94783.69;5048187;28;20211;-78
2021/09/18 17:13:13;;;;;;;5.80;5.20;;;15.90;78.80;;;16.22;62.88;94783.38;5051068;28;20241;-78
2021/09/18 17:15:40;;;;;;;5.05;4.60;;;16.10;78.90;;;16.38;62.73;94789.81;5031069;28;20215;-78
2021/09/18 17:18:08;;;;;;;5.03;4.60;;;16.30;78.60;;;16.48;62.44;94790.03;5041489;28;20199;-78
2021/09/18 17:20:35;;;;;;;5.07;4.68;;;16.40;78.40;;;16.59;62.61;94791.06;5031037;28;20581;-77
2021/09/18 17:23:02;;;;;;;5.70;5.18;;;16.50;78.20;;;16.68;62.19;94788.06;5055764;28;20190;-78
2021/09/18 17:25:29;;;;;;;5.90;4.75;;;16.60;77.90;;;16.73;61.46;94788.94;5074726;28;20242;-77
2021/09/18 17:27:57;;;;;;;4.63;4.22;;;16.80;77.70;;;16.79;61.38;94790.66;5029710;28;20227;-78
2021/09/18 17:30:24;;;;;;;4.95;4.55;;;16.80;77.60;;;16.83;61.74;94793.66;5045886;28;20246;-78
2021/09/18 17:32:51;;;;;;;4.80;4.30;;;16.80;77.30;;;16.85;61.44;94791.56;5056156;28;20199;-79
2021/09/18 17:35:19;;;;;;;4.65;4.25;;;17.00;77.30;;;16.89;61.14;94797.22;5056767;28;20183;-79
2021/09/18 17:37:46;;;;;;;4.32;3.92;;;17.00;77.20;;;16.90;61.02;94793.53;5031656;28;20691;-78
2021/09/18 17:40:14;;;;;;;5.53;4.07;;;17.00;77.10;;;16.91;61.50;94800.44;5048622;28;20286;-80
2021/09/18 17:42:41;;;;;;;4.75;4.35;;;17.00;77.00;;;16.93;61.41;94795.72;5047488;28;20215;-78
2021/09/18 17:45:09;;;;;;;5.63;4.20;;;17.00;76.80;;;16.92;60.81;94802.88;5066661;28;20207;-79
2021/09/18 17:47:36;;;;;;;5.53;4.30;;;17.10;76.90;;;16.94;61.15;94807.94;5052729;28;20199;-78